Bookmark and Share
Track history (hours):
 

Atalandi

Last reported at 2014-Apr-17 03:03 UTC. Time now 2014-Apr-17 04:01 UTC.
Position N 58°02' W 007°38'.

Length 248 m; draft 13.5 m.

Type: Ship (hazmat cat C). MMSI: 240269000.

NotesDate/timePositionNaut miles runAvg speedWind from/ knotsBaromVisibWave heightAir tempDewpointWater temp
2014-Apr-17 03:03N 58°02' W 007°38'4610.1
2014-Apr-16 22:33N 58°35' W 006°37'1510.4
2014-Apr-16 21:08N 58°42' W 006°12'610.2
2014-Apr-16 20:32N 58°43' W 006°01'40 9.6
2014-Apr-16 16:22N 58°46' W 004°44'910.8
2014-Apr-16 15:33N 58°45' W 004°27'1211.8
2014-Apr-16 14:33N 58°45' W 004°04'1212.0
2014-Apr-16 13:33N 58°45' W 003°41'1312.5
2014-Apr-16 12:33N 58°44' W 003°17'9 9.4
2014-Apr-16 11:33N 58°50' W 003°03'2 1.9
2014-Apr-16 10:33N 58°51' W 003°07'0 0.0
2014-Apr-16 09:33N 58°51' W 003°07'0 0.0
2014-Apr-16 08:33N 58°51' W 003°07'0 0.0
2014-Apr-16 07:33N 58°51' W 003°07'0 0.0
2014-Apr-16 06:30N 58°51' W 003°07'0 0.0
2014-Apr-16 05:33N 58°51' W 003°07'0 0.0
2014-Apr-16 04:30N 58°51' W 003°07'0 0.0
2014-Apr-16 03:33N 58°51' W 003°07'0 0.0
2014-Apr-16 02:30N 58°51' W 003°07'0 0.0
2014-Apr-16 01:30N 58°51' W 003°07'0 0.0
2014-Apr-16 00:33N 58°51' W 003°07'0 0.0
2014-Apr-15 23:33N 58°51' W 003°07'0 0.0
2014-Apr-15 22:33N 58°51' W 003°07'0 0.0
2014-Apr-15 21:27N 58°51' W 003°07'0 0.0
2014-Apr-15 20:30N 58°51' W 003°07'0 0.0
2014-Apr-15 19:33N 58°51' W 003°07'0 0.0
2014-Apr-15 18:33N 58°51' W 003°07'0 0.0
2014-Apr-15 17:30N 58°51' W 003°07'0 0.0
2014-Apr-15 16:24N 58°51' W 003°07'0 0.0
2014-Apr-15 15:33N 58°51' W 003°07'0 0.0
2014-Apr-15 14:30N 58°51' W 003°07'0 0.0
2014-Apr-15 12:33N 58°51' W 003°07'0 0.0
2014-Apr-15 11:33N 58°51' W 003°07'0 0.0
2014-Apr-15 10:33N 58°51' W 003°07'0 0.0
2014-Apr-15 09:33N 58°51' W 003°07'0 0.0
2014-Apr-15 08:33N 58°51' W 003°07'0 0.0
2014-Apr-15 07:33N 58°51' W 003°07'0 0.0
2014-Apr-15 06:30N 58°51' W 003°07'0 0.0
2014-Apr-15 05:33N 58°51' W 003°07'0 0.0
2014-Apr-15 03:33N 58°51' W 003°07'0 0.0
2014-Apr-15 02:33N 58°51' W 003°07'1 1.4
2014-Apr-15 01:34N 58°52' W 003°05'1 1.0
2014-Apr-15 00:32N 58°52' W 003°04'0 0.0
2014-Apr-14 23:32N 58°52' W 003°04'0 0.2
2014-Apr-14 22:34N 58°52' W 003°04'6 6.1
2014-Apr-14 21:34N 58°46' W 003°06'6 5.7
2014-Apr-14 20:34N 58°41' W 003°01'6 5.9
2014-Apr-14 19:34N 58°35' W 002°60'5 0.2
2014-Apr-13 21:23N 58°31' W 003°04'0 0.0
2014-Apr-13 20:15N 58°31' W 003°04'0 0.0
2014-Apr-13 19:15N 58°31' W 003°04'0 0.0
2014-Apr-13 13:06N 58°31' W 003°04'0 0.0
2014-Apr-13 04:20N 58°31' W 003°04'2 0.2
2014-Apr-12 19:20N 58°30' W 002°59'7 9.4
2014-Apr-12 18:33N 58°26' W 002°48'4810.9
2014-Apr-12 14:07N 57°53' W 001°42'611.3
2014-Apr-12 13:33N 57°48' W 001°34'1010.3
2014-Apr-12 12:34N 57°40' W 001°21'1110.6
2014-Apr-12 11:34N 57°32' W 001°09'289 9.0
2014-Apr-11 03:31N 53°58' E 004°37'1111.2
2014-Apr-11 02:33N 53°49' E 004°26'1211.9
2014-Apr-11 01:33N 53°42' E 004°11'1212.0
2014-Apr-11 00:32N 53°34' E 003°54'3411.3
2014-Apr-10 21:31N 53°04' E 003°27'1010.9
2014-Apr-10 20:33N 52°55' E 003°20'1310.7
2014-Apr-10 19:22N 52°43' E 003°12'1010.4
2014-Apr-10 18:25N 52°33' E 003°10'910.3
2014-Apr-10 17:33N 52°24' E 003°09'1110.0
2014-Apr-10 16:26N 52°15' E 003°19'1112.3
2014-Apr-10 15:33N 52°09' E 003°34'4 3.7
2014-Apr-10 14:31N 52°08' E 003°40'0 0.1
2014-Apr-10 13:28N 52°08' E 003°40'0 0.0
2014-Apr-10 12:28N 52°08' E 003°40'0 0.0
2014-Apr-10 11:31N 52°08' E 003°40'0 0.0
2014-Apr-10 10:31N 52°08' E 003°40'0 0.0
2014-Apr-10 09:31N 52°08' E 003°40'0 0.0
2014-Apr-10 08:31N 52°08' E 003°40'0 0.1
2014-Apr-10 07:31N 52°08' E 003°39'0 0.1
2014-Apr-10 06:31N 52°08' E 003°39'0 0.0
2014-Apr-10 05:31N 52°08' E 003°39'0 0.0
2014-Apr-10 04:31N 52°08' E 003°39'0 0.1
2014-Apr-10 03:31N 52°08' E 003°40'0 0.1
2014-Apr-10 02:31N 52°08' E 003°40'0 0.0
2014-Apr-10 01:31N 52°08' E 003°40'0 0.0
2014-Apr-10 00:31N 52°08' E 003°40'0 0.0
2014-Apr-09 23:31N 52°08' E 003°40'0 0.0
2014-Apr-09 22:31N 52°08' E 003°40'0 0.0
2014-Apr-09 21:31N 52°08' E 003°40'0 0.0
2014-Apr-09 20:31N 52°08' E 003°40'0 0.0
2014-Apr-09 19:31N 52°08' E 003°40'0 0.0
2014-Apr-09 18:31N 52°08' E 003°40'0 0.0
2014-Apr-09 17:31N 52°08' E 003°40'0 0.0
2014-Apr-09 16:28N 52°08' E 003°40'0 0.0
2014-Apr-09 15:31N 52°08' E 003°40'0 0.1
2014-Apr-09 14:31N 52°08' E 003°40'0 0.0
2014-Apr-09 13:31N 52°08' E 003°40'0 0.0
2014-Apr-09 12:31N 52°08' E 003°40'0 0.0
2014-Apr-09 09:22N 52°08' E 003°40'0 0.0
2014-Apr-09 06:31N 52°08' E 003°40'0 0.0
2014-Apr-09 05:31N 52°08' E 003°40'0 0.0
2014-Apr-09 04:28N 52°08' E 003°40'0 0.0
2014-Apr-09 03:31N 52°08' E 003°40'0 0.0
2014-Apr-09 01:28N 52°08' E 003°40'0 0.0
2014-Apr-09 00:28N 52°08' E 003°40'0 0.0
2014-Apr-08 20:22N 52°08' E 003°40'0 0.0
2014-Apr-08 18:22N 52°08' E 003°40'0 0.0
2014-Apr-08 17:31N 52°08' E 003°40'0 0.1
2014-Apr-08 16:31N 52°08' E 003°40'0 0.0
2014-Apr-08 15:16N 52°08' E 003°39'0 0.2
2014-Apr-08 14:25N 52°08' E 003°40'0 0.0
2014-Apr-08 13:28N 52°08' E 003°40'0 0.1
2014-Apr-08 12:28N 52°08' E 003°40'0 0.0
2014-Apr-08 11:16N 52°08' E 003°40'0 0.2
2014-Apr-08 10:27N 52°08' E 003°40'4 4.5
2014-Apr-08 09:33N 52°06' E 003°46'5 5.3
2014-Apr-08 08:33N 52°04' E 003°54'9 8.6
2014-Apr-08 07:33N 51°59' E 004°05'  

Dump ship's entire track history

sailing weather and tide predictions

Atalandi — SVBA — position and weather